NCAR-RAP Real-Time Weather Data

Output produced by METARs form (26 May 2022  08:34 UTC)
found at http://weather.rap.ucar.edu/surface/
 
KDFW 260753Z 29007KT 10SM FEW250 17/09 A2987 RMK AO2 SLP110 T01670089
KDFW 260653Z 29009KT 10SM FEW100 FEW250 18/09 A2989 RMK AO2 SLP115 T01780089
KDFW 260553Z 26008KT 10SM FEW100 FEW250 17/09 A2988 RMK AO2 SLP114 T01720089 10217 20167 402280161 50001
KDFW 260453Z 26008KT 10SM FEW100 FEW250 18/09 A2989 RMK AO2 SLP115 T01780089
KDFW 260353Z 24006KT 10SM FEW070 FEW250 18/09 A2988 RMK AO2 SLP115 T01780094
KDFW 260253Z 26008KT 10SM FEW070 SCT250 19/09 A2988 RMK AO2 SLP112 T01890089 51014
KDFW 260153Z 28008KT 10SM FEW050 FEW075 SCT250 19/09 A2987 RMK AO2 SLP110 T01940089
KDFW 260053Z 31012G21KT 10SM FEW050 FEW075 SCT250 21/08 A2986 RMK AO2 SLP105 T02060083
KDFW 252353Z 28017G25KT 10SM FEW050 FEW075 BKN250 22/08 A2984 RMK AO2 SLP098 T02170083 10228 20189 53002
KDFW 252253Z 29014G24KT 10SM FEW055 SCT075 BKN250 22/08 A2983 RMK AO2 PK WND 28026/2213 SLP093 T02220083
KDFW 252153Z 29017G25KT 10SM SCT055 SCT250 22/08 A2982 RMK AO2 PK WND 27028/2105 SLP092 T02170078
KDFW 252053Z 29022G28KT 10SM BKN055 BKN250 22/08 A2983 RMK AO2 PK WND 29028/2050 SLP096 T02170083 58002
KDFW 251953Z 29019G26KT 10SM SCT045 BKN050 BKN250 22/09 A2983 RMK AO2 PK WND 26027/1917 SLP097 T02170089
KDFW 251853Z 28015KT 10SM SCT038 BKN049 21/10 A2984 RMK AO2 PK WND 29032/1756 SLP099 T02060100
KDFW 251753Z 30020G26KT 10SM SCT034 BKN046 20/11 A2984 RMK AO2 PK WND 30028/1741 SLP098 60000 T02000106 10206 20161 50008
KDFW 251717Z 27014G19KT 10SM SCT024 BKN032 BKN039 19/12 A2984 RMK AO2 T01940117
KDFW 251653Z 30012G21KT 10SM SCT019 BKN027 19/12 A2985 RMK AO2 SLP101 T01890122
KDFW 251553Z 30020G25KT 10SM BKN016 OVC022 17/12 A2982 RMK AO2 SLP094 T01670122
KDFW 251453Z 29014G22KT 10SM BKN015 OVC025 17/13 A2981 RMK AO2 SLP091 60000 T01670133 53023
KDFW 251353Z 29015KT 10SM SCT010 OVC016 17/14 A2979 RMK AO2 RAB1257E35 SLP083 P0000 T01670144
KDFW 251337Z 29013KT 10SM SCT009 OVC017 17/14 A2979 RMK AO2 RAB1257E35 P0000 T01670144
KDFW 251304Z 26015KT 10SM -RA BKN009 OVC013 17/15 A2976 RMK AO2 RAB1257 P0000 T01670150
KDFW 251253Z 26014KT 10SM BKN012 OVC025 17/15 A2976 RMK AO2 SLP071 T01720150
KDFW 251153Z 22008KT 10SM BKN012 OVC030 17/16 A2974 RMK AO2 SLP066 60005 70133 T01720156 10172 20167 53015
KDFW 251133Z 25008KT 10SM BKN012 OVC030 17/16 A2973 RMK AO2 T01720156
KDFW 251053Z 28009KT 10SM FEW008 FEW026 OVC031 17/15 A2971 RMK AO2 SLP054 T01720150
KDFW 250953Z 28007KT 10SM BKN026 BKN033 17/15 A2969 RMK AO2 SLP045 T01670150
KDFW 250853Z 28009KT 10SM SCT008 BKN015 OVC150 17/16 A2970 RMK AO2 PK WND 25030/0820 WSHFT 0808 RAE13 SLP050 P0000 60005 T01720156 55022
KDFW 250824Z 33007G30KT 210V010 10SM SCT008 BKN090 BKN110 OVC150 17/15 A2967 RMK AO2 PK WND 25030/0820 WSHFT 0808 RAE13 P0000 T01670150
KDFW 250753Z 13012G17KT 10SM -RA FEW006 BKN013 BKN095 OVC150 17/15 A2969 RMK AO2 RAB47 SLP048 P0000 T01670150
KDFW 250729Z 17009KT 10SM FEW006 FEW009 BKN013 OVC150 17/16 A2972 RMK AO2 PRESRR T01670156
KDFW 250653Z 08006KT 10SM FEW004 SCT011 OVC150 17/16 A2967 RMK AO2 RAE44 TSE15 SLP041 TS DSIPTD P0005 T01670156
KDFW 250616Z 06005KT 10SM -RA SCT008 SCT070 OVC100 17/16 A2970 RMK AO2 TSE15 PRESFR TS DSIPTD P0004 T01670156
KDFW 250553Z 16006KT 5SM +TSRA BR FEW005 BKN070CB OVC095 17/16 A2977 RMK AO2 LTG DSNT ALQDS TSB37E52B53 PRESFR SLP073 OCNL LTGIC ALQDS TS ALQDS MOV NE P0020 60119 T01670161 10189 20167 402440167 56005
KDFW 250537Z 19006KT 4SM +TSRA BR FEW004 BKN075 OVC100 17/16 A2978 RMK AO2 LTG DSNT E-S TSB37 P0012 T01720161
KDFW 250453Z 19005KT 10SM -RA FEW010 BKN110 OVC150 17/16 A2977 RMK AO2 TSE13 SLP073 TS MOVD E P0011 T01720161
KDFW 250414Z COR 08006KT 6SM RA BR SCT080 OVC100 17/16 A2976 RMK AO2 TSE13 OCNL LTGIC DSNT NE-SE TS MOVD E CB DSNT NE-SE MOV E P0007 T01720161
KDFW 250353Z 07003KT 6SM TSRA SCT075CB OVC100 17/16 A2977 RMK AO2 SLP073 OCNL LTGICCC SW-NW TS SW-NW MOV NE P0016 T01720161
KDFW 250253Z COR 07005KT 10SM -TSRA FEW010 SCT075CB OVC090 17/16 A2978 RMK AO2 WSHFT 0144 LTG DSNT ALQDS SLP079 FRQ LTGICCC OHD-ALQDS TS OHD-ALQDS MOV E P0036 60072 T01720156 50028
KDFW 250215Z 03007KT 5SM -TSRA SCT012CB BKN038 OVC070 17/16 A2980 RMK AO2 WSHFT 0144 LTG DSNT ALQDS FRQ LTGICCG NE-SE-OHD TS NE-SE-OHD MOV E P0032 T01720161
KDFW 250208Z 31005G18KT 1 3/4SM R17C/2800VP6000FT +TSRA SCT007 OVC012CB 18/17 A2980 RMK AO2 WSHFT 0144 LTG DSNT ALQDS FRQ LTGIC OHD TS OHD MOV E P0028 T01780167
KDFW 250201Z 30013G23KT 1/2SM R17C/2800VP6000FT +TSRA SCT007 BKN012CB 18/17 A2983 RMK AO2 WSHFT 0144 LTG DSNT ALQDS FRQ LTGIC SW-NW FRQ LTGIC DSNT NE-SE TS SW-NW MOV E CB DSNT NE-SE MOV NE P0008 T01780167
KDFW 250159Z 28016G23KT 1 1/2SM R17C/5500VP6000FT +TSRA FEW012 BKN021CB OVC046 18/17 A2984 RMK AO2 WSHFT 0144 LTG DSNT ALQDS PRESRR FRQ LTGIC SW-NW FRQ LTGIC DSNT NE-SE TS SW-NW MOV E CB DSNT NE-SE MOV NE P0001 T01830167
KDFW 250157Z 25013G22KT 8SM -TSRA FEW012 BKN021CB OVC046 18/17 A2983 RMK AO2 WSHFT 0143 LTG DSNT ALQDS PRESRR FRQ LTGIC SW-NW FRQ LTGIC DSNT NE-SE TS SW-NW MOV E CB DSNT NE-SE MOV NE P0000 T01830167
KDFW 250153Z 33015KT 10SM -TSRA SCT012 BKN021CB OVC046 18/17 A2980 RMK AO2 LTG DSNT ALQDS RAB06 TSB53 PRESRR SLP086 FRQ LTGIC SW-NW FRQ LTGIC DSNT NE-SE TS SW-NW MOV E CB DSNT NE-SE MOV NE P0003 T01830167
KDFW 250053Z 03015KT 10SM FEW027 BKN050 OVC060 18/17 A2968 RMK AO2 PK WND 35027/0003 LTG DSNT ALQDS RAE53 TSE53 SLP045 OCNL LTGIC DSNT NW-NE TS MOVD NE CB DSNT NW-NE MOV NE P0033 T01830167
KDFW 250028Z 01013G27KT 4SM -TSRA FEW015 SCT028CB OVC035 18/16 A2969 RMK AO2 PK WND 35027/0003 LTG DSNT ALQDS OCNL LTGIC NW-NE-E TS NW-NE-E MOV NE P0033 T01780161
KDFW 250016Z 36015G25KT 1 1/4SM R17C/6000VP6000FT +TSRA FEW015 SCT028CB OVC035 18/16 A2969 RMK AO2 PK WND 35027/0003 LTG DSNT ALQDS OCNL LTGICCG NE-OHD-SW TS NE-OHD-SW MOV NE P0025 T01780161
KDFW 242358Z 34018G29KT 1 1/2SM R17C/5500VP6000FT +TSRA SCT015 BKN027CB OVC055 19/17 A2969 RMK AO2 LTG DSNT N AND S AND SW OCNL LTGICCG NE-OHD TS NE-OHD MOV NE P0004 T01890167
KDFW 242353Z 32019G29KT 10SM -TSRA SCT015 BKN027CB OVC060 19/16 A2970 RMK AO2 PK WND 33029/2343 WSHFT 2335 LTG DSNT ALQDS RAB25 TSB40 PRESRR SLP050 OCNL LTGIC NE AND SW TS NE AND SW MOV NE P0000 60001 T01940161 10244 20
KDFW 242349Z 32019G29KT 10SM -TSRA SCT015 BKN027CB OVC060 19/16 A2969 RMK AO2 PK WND 33029/2343 WSHFT 2335 LTG DSNT ALQDS RAB25 TSB40 OCNL LTGIC S-W-N TS S-W-N MOV NE P0000
KDFW 242340Z 33015G18KT 10SM -TSRA FEW015 SCT032CB BKN055 OVC140 23/17 A2967 RMK AO2 LTG DSNT ALQDS RAB25 TSB40 OCNL LTGIC N AND S TS N AND S MOV NE P0000 T02330172
KDFW 242253Z 04009KT 10SM FEW026 SCT045 BKN100 BKN140 BKN250 24/17 A2966 RMK AO2 SLP038 TCU DSNT E T02390167
KDFW 242153Z 05012KT 10SM FEW010 SCT032 BKN038TCU BKN140 BKN250 23/17 A2969 RMK AO2 RAB24E34 SLP046 TCU N-NE P0000 T02330167
KDFW 242113Z 03013KT 10SM SCT026 SCT038TCU BKN050 BKN140 BKN250 24/17 A2970 RMK AO2 TCU SE-S T02390167
KDFW 242053Z 02011KT 10SM FEW010 BKN026 BKN048 23/17 A2972 RMK AO2 SLP057 60001 T02280167 58022
KDFW 241953Z 03012KT 10SM FEW010 BKN025 22/17 A2975 RMK AO2 LTG DSNT E RAE1859 SLP067 P0000 T02170172
KDFW 241853Z 02008KT 10SM -RA FEW009 OVC026 19/17 A2978 RMK AO2 RAE02B23 SLP078 P0001 T01940172
KDFW 241753Z 36011KT 10SM -RA FEW006 OVC018 19/17 A2978 RMK AO2 PK WND 34026/1723 SLP080 WSHFT 02 FROPA P0007 60008 T01890172 10228 20183 55003
KDFW 241731Z 35017G26KT 4SM RA BR FEW008 OVC014 18/17 A2979 RMK AO2 PK WND 34026/1723 LTG DSNT NE AND NW WSHFT 02 FROPA P0002 T01830167
KDFW 241708Z 32009G24KT 5SM -RA BR OVC015 19/17 A2980 RMK AO2 LTG DSNT N WSHFT 02 FROPA P0002 T01940172
KDFW 241653Z 18009KT 4SM -RA BR OVC015 22/20 A2978 RMK AO2 RAB32 SLP078 VIS SW-NW 2 P0001 T02220200
KDFW 241641Z 18009KT 8SM VCTS -RA OVC015 23/19 A2978 RMK AO2 RAB32 P0000 T02280194
KDFW 241622Z 18008KT 10SM OVC015 23/19 A2978 RMK AO2 T02280189
KDFW 241553Z 16007KT 10SM OVC013 22/19 A2979 RMK AO2 SLP081 T02220189
KDFW 241453Z 14010G20KT 10SM OVC012 22/19 A2979 RMK AO2 SLP082 T02170189 55003
KDFW 241353Z 12009KT 10SM BKN010 OVC014 21/19 A2979 RMK AO2 SLP080 T02110189
KDFW 241253Z 14009KT 10SM OVC010 20/18 A2981 RMK AO2 SLP087 T02000183
KDFW 241153Z 13011KT 10SM OVC012 19/18 A2980 RMK AO2 RAE49 SLP086 P0000 60000 70001 T01940178 10200 20194 58008
KDFW 241053Z 14010G17KT 10SM -RA OVC012 20/17 A2982 RMK AO2 RAB25 SLP092 P0000 T02000172
KDFW 240953Z 14012KT 10SM BKN014 OVC019 20/17 A2983 RMK AO2 LTG DSNT NW SLP092 T02000172
KDFW 240853Z 13009KT 10SM OVC012 19/17 A2983 RMK AO2 RAE00 SLP093 P0000 60000 T01940167 58016
KDFW 240842Z 12011G19KT 10SM OVC012 19/17 A2984 RMK AO2 RAE00 P0000 T01940167